Time;durP1;ratioP1;P1;durP2;ratioP2;P2;SDS_P1;SDS_P2;PMS_P1;PMS_P2;Temp;Humidity;BMP_temperature;BMP_pressure;BME280_temperature;BME280_humidity;BME280_pressure;Samples;Min_cycle;Max_cycle;Signal;HPM_P1;HPM_P2
2021/07/28 00:00:34;;;;;;;15.50;14.00;;;;;;;21.51;62.44;100654.16;5061201;28;20166;-66
2021/07/28 00:02:59;;;;;;;15.77;13.43;;;;;;;21.53;62.82;100651.47;5061518;28;20162;-66
2021/07/28 00:05:25;;;;;;;15.83;14.33;;;;;;;21.41;63.61;100651.91;5060890;28;20197;-66
2021/07/28 00:07:50;;;;;;;17.73;14.80;;;;;;;21.42;63.73;100653.59;5061174;28;20201;-66
2021/07/28 00:10:16;;;;;;;13.77;12.67;;;;;;;21.54;62.84;100642.56;5061607;28;20523;-65
2021/07/28 00:12:41;;;;;;;14.87;13.67;;;;;;;21.39;63.52;100640.47;5060859;28;20193;-65
2021/07/28 00:15:07;;;;;;;15.10;13.73;;;;;;;21.66;62.61;100635.94;5061125;28;20161;-65
2021/07/28 00:17:35;;;;;;;15.13;13.60;;;;;;;21.28;63.33;100641.72;5061452;28;20189;-66
2021/07/28 00:20:04;;;;;;;14.70;13.47;;;;;;;21.63;62.33;100639.56;5061052;28;20439;-66
2021/07/28 00:25:20;;;;;;;15.43;14.00;;;;;;;21.55;62.56;100639.00;5061001;28;20434;-66
2021/07/28 00:27:46;;;;;;;15.97;14.57;;;;;;;21.27;63.33;100633.81;5060739;28;20463;-66
2021/07/28 00:30:11;;;;;;;14.67;13.20;;;;;;;21.15;63.41;100640.47;5061040;28;20474;-66
2021/07/28 00:32:36;;;;;;;13.53;12.20;;;;;;;21.36;62.59;100637.03;5060622;28;20512;-65
2021/07/28 00:35:02;;;;;;;13.13;11.90;;;;;;;21.18;62.77;100635.03;5061195;28;20223;-65
2021/07/28 00:37:28;;;;;;;14.33;13.13;;;;;;;21.24;62.39;100633.94;5060472;28;20490;-66
2021/07/28 00:39:53;;;;;;;12.10;11.10;;;;;;;21.49;61.14;100629.47;5060556;28;21054;-66
2021/07/28 00:42:19;;;;;;;12.67;11.60;;;;;;;21.07;62.39;100638.06;5061707;28;20161;-66
2021/07/28 00:44:44;;;;;;;13.03;11.83;;;;;;;21.34;62.05;100635.34;5060585;28;20181;-66
2021/07/28 00:47:11;;;;;;;12.47;11.37;;;;;;;20.86;62.76;100634.38;5059744;28;20371;-66
2021/07/28 00:49:36;;;;;;;12.63;11.43;;;;;;;21.27;61.61;100631.16;5060869;28;20162;-65
2021/07/28 00:52:02;;;;;;;12.03;11.00;;;;;;;21.06;62.56;100631.03;5060176;28;20423;-66
2021/07/28 00:54:29;;;;;;;10.57;9.63;;;;;;;21.14;61.23;100621.03;5060239;28;20176;-65
2021/07/28 00:56:54;;;;;;;10.87;9.93;;;;;;;21.14;61.07;100621.03;5060724;28;20169;-65
2021/07/28 00:59:20;;;;;;;11.33;10.33;;;;;;;21.24;60.77;100623.34;5042818;28;20448;-65
2021/07/28 01:01:45;;;;;;;9.50;8.70;;;;;;;20.97;60.62;100615.47;5059569;28;20165;-65
2021/07/28 01:04:11;;;;;;;10.57;9.53;;;;;;;20.93;60.54;100608.53;5059624;28;20215;-66
2021/07/28 01:06:36;;;;;;;9.93;9.03;;;;;;;20.78;61.09;100608.19;5059901;28;20196;-66
2021/07/28 01:09:01;;;;;;;9.87;9.00;;;;;;;21.03;59.89;100602.84;5059759;28;20595;-67
2021/07/28 01:11:27;;;;;;;10.03;9.23;;;;;;;21.13;60.07;100600.72;5060297;28;20169;-66
2021/07/28 01:13:55;;;;;;;10.90;9.80;;;;;;;21.24;60.13;100600.31;5059810;28;20173;-66
2021/07/28 01:16:22;;;;;;;10.40;9.50;;;;;;;20.93;61.16;100597.94;5059817;28;20499;-66
2021/07/28 01:18:48;;;;;;;10.33;9.43;;;;;;;21.15;61.54;100598.03;5060199;28;20408;-66
2021/07/28 01:21:13;;;;;;;11.47;10.47;;;;;;;21.17;60.95;100590.88;5059808;28;20466;-66
2021/07/28 01:23:39;;;;;;;11.17;10.13;;;;;;;21.24;60.77;100599.47;5059673;28;20611;-65
2021/07/28 01:26:06;;;;;;;10.33;9.33;;;;;;;20.96;61.37;100592.53;5059901;28;20165;-66
2021/07/28 01:28:33;;;;;;;9.43;8.63;;;;;;;20.78;61.70;100589.63;5059836;28;20197;-66
2021/07/28 01:31:06;;;;;;;10.50;9.60;;;;;;;20.77;60.66;100589.66;5059986;28;20423;-66
2021/07/28 01:33:33;;;;;;;10.20;9.40;;;;;;;21.12;60.70;100587.53;5059597;28;20412;-66
2021/07/28 01:35:59;;;;;;;10.50;9.70;;;;;;;20.85;60.75;100588.50;5059664;28;20447;-66
2021/07/28 01:38:26;;;;;;;10.80;9.90;;;;;;;20.61;61.71;100591.97;5060177;28;20400;-66
2021/07/28 01:40:54;;;;;;;9.43;8.53;;;;;;;20.87;61.25;100577.81;5059684;28;20465;-66
2021/07/28 01:43:19;;;;;;;10.53;9.50;;;;;;;20.94;60.51;100583.78;5059483;28;20416;-66
2021/07/28 01:45:44;;;;;;;9.80;8.97;;;;;;;20.66;61.08;100585.59;5060149;28;20404;-66
2021/07/28 01:48:10;;;;;;;9.63;8.80;;;;;;;21.02;61.03;100584.34;5059538;28;20198;-66
2021/07/28 01:50:35;;;;;;;9.83;8.97;;;;;;;21.22;59.60;100580.09;5059537;28;20169;-66
2021/07/28 01:53:02;;;;;;;10.83;9.93;;;;;;;20.80;61.08;100586.94;5059600;28;20184;-66
2021/07/28 01:55:27;;;;;;;10.17;9.37;;;;;;;21.03;59.80;100583.44;5059331;28;20176;-67
2021/07/28 01:57:56;;;;;;;10.57;9.67;;;;;;;21.15;61.03;100577.69;5058397;28;20503;-66
2021/07/28 02:00:22;;;;;;;9.37;8.57;;;;;;;21.00;60.48;100584.41;5059811;28;20166;-65
2021/07/28 02:02:47;;;;;;;11.10;10.00;;;;;;;21.01;60.18;100582.63;5058989;28;20426;-66
2021/07/28 02:05:13;;;;;;;9.27;8.47;;;;;;;20.95;60.66;100580.22;5059125;28;20169;-66
2021/07/28 02:07:38;;;;;;;9.70;8.90;;;;;;;21.27;59.38;100571.06;5059561;28;20501;-66
2021/07/28 02:10:04;;;;;;;9.53;8.73;;;;;;;21.17;59.76;100578.47;5059161;28;20169;-66
2021/07/28 02:12:29;;;;;;;9.30;8.50;;;;;;;21.13;59.95;100566.25;5058843;28;20193;-66
2021/07/28 02:14:54;;;;;;;8.17;7.57;;;;;;;21.26;59.71;100572.00;5059418;28;20169;-66
2021/07/28 02:17:20;;;;;;;9.30;8.40;;;;;;;21.16;59.74;100563.53;5058890;28;20169;-67
2021/07/28 02:19:45;;;;;;;9.60;8.60;;;;;;;21.33;59.80;100564.66;5058969;28;20220;-66
2021/07/28 02:22:11;;;;;;;9.97;8.70;;;;;;;21.02;59.54;100571.97;5058880;28;20216;-66
2021/07/28 02:24:37;;;;;;;9.00;8.17;;;;;;;20.90;59.16;100567.13;5058682;28;20583;-66
2021/07/28 02:27:02;;;;;;;9.50;8.70;;;;;;;20.99;59.96;100564.13;5058777;28;20173;-67
2021/07/28 02:29:28;;;;;;;8.43;7.73;;;;;;;20.92;59.82;100559.09;5058707;28;20420;-67
2021/07/28 02:31:53;;;;;;;9.27;8.47;;;;;;;20.88;60.10;100558.38;5058704;28;20188;-66
2021/07/28 02:34:19;;;;;;;9.00;8.20;;;;;;;21.09;59.93;100551.41;5058789;28;20200;-67
2021/07/28 02:36:44;;;;;;;10.10;9.20;;;;;;;21.25;59.09;100551.69;5058584;28;20235;-66
2021/07/28 02:39:09;;;;;;;8.80;8.10;;;;;;;21.26;59.40;100558.72;5058428;28;20193;-66
2021/07/28 02:41:35;;;;;;;8.63;7.90;;;;;;;21.07;59.54;100550.59;5058742;28;20166;-66
2021/07/28 02:44:00;;;;;;;9.60;8.70;;;;;;;20.74;60.51;100558.00;5058229;28;20181;-66
2021/07/28 02:46:25;;;;;;;9.03;8.17;;;;;;;21.06;59.50;100554.16;5059437;28;20166;-66
2021/07/28 02:48:51;;;;;;;8.30;7.60;;;;;;;21.07;59.08;100555.91;5058950;28;20570;-66
2021/07/28 02:51:16;;;;;;;7.97;7.27;;;;;;;21.08;58.88;100554.09;5058317;28;20225;-66
2021/07/28 02:53:41;;;;;;;8.33;7.63;;;;;;;21.36;58.29;100553.94;5058076;28;20204;-66
2021/07/28 02:56:07;;;;;;;9.13;8.43;;;;;;;21.13;59.38;100552.16;5058709;28;20169;-66
2021/07/28 02:58:32;;;;;;;7.90;7.30;;;;;;;21.01;60.00;100564.06;5058174;28;20161;-67
2021/07/28 03:00:57;;;;;;;9.20;8.37;;;;;;;21.13;59.90;100550.34;5058196;28;20173;-66
2021/07/28 03:03:23;;;;;;;9.10;8.20;;;;;;;21.32;59.26;100544.38;5058498;28;20253;-66
2021/07/28 03:05:49;;;;;;;10.17;9.27;;;;;;;20.86;60.46;100545.19;5058052;28;20280;-66
2021/07/28 03:08:14;;;;;;;9.23;8.33;;;;;;;21.36;59.17;100551.28;5057982;28;20563;-66
2021/07/28 03:10:39;;;;;;;9.93;8.97;;;;;;;20.65;61.15;100556.50;5058366;28;20817;-66
2021/07/28 03:13:04;;;;;;;9.37;8.53;;;;;;;20.84;61.09;100549.66;5057925;28;20209;-66
2021/07/28 03:15:30;;;;;;;8.87;8.07;;;;;;;20.52;62.01;100554.28;5058054;28;20238;-66
2021/07/28 03:17:55;;;;;;;9.47;8.67;;;;;;;20.73;61.56;100558.91;5058190;28;20215;-66
2021/07/28 03:20:20;;;;;;;10.50;8.63;;;;;;;20.78;61.48;100555.19;5058090;28;20180;-66
2021/07/28 03:22:46;;;;;;;10.60;8.57;;;;;;;20.59;61.86;100557.56;5057675;28;20257;-66
2021/07/28 03:25:12;;;;;;;9.10;8.27;;;;;;;21.12;60.43;100550.41;5058400;28;20244;-66
2021/07/28 03:27:37;;;;;;;9.20;8.30;;;;;;;21.15;60.29;100548.53;5057605;28;20497;-66
2021/07/28 03:30:02;;;;;;;9.60;8.70;;;;;;;21.08;60.53;100560.28;5057915;28;20176;-66
2021/07/28 03:32:28;;;;;;;9.00;8.30;;;;;;;20.14;63.85;100566.19;5058179;28;20173;-66
2021/07/28 03:34:53;;;;;;;9.00;8.10;;;;;;;20.18;63.60;100566.00;5057501;28;20180;-66
2021/07/28 03:37:18;;;;;;;9.07;8.27;;;;;;;20.37;62.88;100568.03;5057762;28;20200;-66
2021/07/28 03:39:44;;;;;;;8.73;8.03;;;;;;;20.59;61.79;100554.91;5058143;28;20161;-66
2021/07/28 03:42:10;;;;;;;9.30;8.40;;;;;;;20.36;62.48;100556.59;5057794;28;20173;-65
2021/07/28 03:44:35;;;;;;;9.20;8.40;;;;;;;20.72;61.91;100563.34;5057656;28;20426;-66
2021/07/28 03:47:00;;;;;;;8.97;8.27;;;;;;;20.31;62.93;100562.94;5058204;28;20470;-66
2021/07/28 03:49:26;;;;;;;10.70;8.50;;;;;;;20.88;61.54;100557.47;5057479;28;20198;-66
2021/07/28 03:51:51;;;;;;;9.50;8.60;;;;;;;20.81;61.23;100557.72;5057733;28;20173;-66
2021/07/28 03:54:16;;;;;;;8.90;8.10;;;;;;;20.95;60.65;100561.66;5058004;28;20169;-66
2021/07/28 03:56:42;;;;;;;9.73;8.73;;;;;;;20.71;61.05;100560.75;5057596;28;20472;-66
2021/07/28 03:59:07;;;;;;;10.10;9.10;;;;;;;20.94;61.12;100559.94;5057551;28;20228;-66
2021/07/28 04:01:32;;;;;;;10.60;8.80;;;;;;;21.14;60.02;100554.75;5058094;28;20429;-66
2021/07/28 04:03:58;;;;;;;9.70;8.87;;;;;;;20.74;61.63;100556.19;5057440;28;20469;-66
2021/07/28 04:06:23;;;;;;;10.20;9.20;;;;;;;21.02;61.03;100566.66;5057528;28;20189;-65
2021/07/28 04:08:48;;;;;;;11.33;10.33;;;;;;;20.89;61.14;100560.09;5057841;28;20197;-66
2021/07/28 04:11:14;;;;;;;11.33;10.23;;;;;;;20.79;61.67;100566.66;5057584;28;20196;-66
2021/07/28 04:13:39;;;;;;;10.53;9.43;;;;;;;20.88;61.16;100555.72;5057345;28;20275;-66
2021/07/28 04:16:04;;;;;;;10.30;9.37;;;;;;;20.34;62.58;100555.78;5057881;28;20197;-66
2021/07/28 04:18:30;;;;;;;10.73;9.77;;;;;;;20.22;63.23;100564.13;5057327;28;20184;-66
2021/07/28 04:20:55;;;;;;;9.87;8.97;;;;;;;20.48;62.78;100559.75;5058319;28;20180;-66
2021/07/28 04:23:20;;;;;;;10.27;9.20;;;;;;;20.81;61.67;100560.38;5060918;28;20316;-66
2021/07/28 04:25:46;;;;;;;9.67;8.70;;;;;;;20.53;62.66;100558.66;5061199;28;20491;-66
2021/07/28 04:28:11;;;;;;;10.63;9.63;;;;;;;20.21;63.74;100558.91;5061294;28;20193;-66
2021/07/28 04:30:37;;;;;;;10.70;9.70;;;;;;;20.81;62.21;100557.72;5061091;28;20174;-66
2021/07/28 04:33:02;;;;;;;12.10;10.67;;;;;;;20.74;62.13;100556.19;5060896;28;20260;-66
2021/07/28 04:35:27;;;;;;;11.20;10.10;;;;;;;20.84;61.73;100549.66;5061668;28;20180;-65
2021/07/28 04:37:53;;;;;;;10.77;9.50;;;;;;;21.76;58.78;100548.88;5060711;28;20173;-66
2021/07/28 04:40:18;;;;;;;10.60;9.63;;;;;;;21.15;60.42;100545.88;5060716;28;20173;-67
2021/07/28 04:42:43;;;;;;;11.23;9.90;;;;;;;21.01;61.21;100551.69;5061155;28;20165;-66
2021/07/28 04:45:09;;;;;;;10.37;9.47;;;;;;;21.60;59.73;100551.28;5060640;28;20531;-66
2021/07/28 04:47:34;;;;;;;10.80;9.80;;;;;;;22.52;56.78;100555.47;5060580;28;20204;-66
2021/07/28 04:50:00;;;;;;;10.47;9.47;;;;;;;23.57;53.67;100549.03;5061541;28;20162;-66
2021/07/28 04:52:25;;;;;;;10.10;9.10;;;;;;;24.44;51.30;100541.22;5060544;28;20166;-66
2021/07/28 04:54:52;;;;;;;10.90;9.80;;;;;;;23.95;51.66;100543.66;5060380;28;20177;-66
2021/07/28 04:57:17;;;;;;;11.10;9.13;;;;;;;23.66;52.57;100549.44;5060217;28;20166;-66
2021/07/28 04:59:42;;;;;;;10.70;9.80;;;;;;;24.73;50.98;100543.31;5060448;28;20422;-66
2021/07/28 05:02:08;;;;;;;11.20;10.20;;;;;;;25.39;48.52;100537.09;5059569;28;20173;-66
2021/07/28 05:04:33;;;;;;;11.47;10.27;;;;;;;25.28;48.87;100531.47;5060552;28;20594;-67
2021/07/28 05:06:58;;;;;;;11.50;10.40;;;;;;;24.17;51.15;100547.00;5060129;28;20575;-66
2021/07/28 05:09:24;;;;;;;11.10;9.87;;;;;;;23.40;53.31;100544.53;5060163;28;20315;-68
2021/07/28 05:11:49;;;;;;;13.80;12.50;;;;;;;24.15;51.53;100542.69;5060519;28;20169;-66
2021/07/28 05:14:14;;;;;;;11.83;10.83;;;;;;;25.04;48.70;100532.72;5059809;28;20591;-67
2021/07/28 05:16:39;;;;;;;10.67;9.77;;;;;;;25.81;47.35;100532.94;5060058;28;20170;-67
2021/07/28 05:19:05;;;;;;;13.77;12.30;;;;;;;26.16;45.17;100538.06;5060927;28;20231;-67
2021/07/28 05:21:30;;;;;;;12.73;11.53;;;;;;;26.43;45.17;100529.38;5059893;28;20173;-67
2021/07/28 05:23:55;;;;;;;13.97;12.57;;;;;;;26.40;45.47;100532.22;5059601;28;20257;-67
2021/07/28 05:26:21;;;;;;;11.60;10.50;;;;;;;26.46;45.32;100531.00;5060237;28;20248;-67
2021/07/28 05:28:46;;;;;;;11.40;10.40;;;;;;;25.49;47.76;100532.97;5059756;28;20575;-67
2021/07/28 05:31:13;;;;;;;11.97;10.77;;;;;;;24.15;51.48;100542.69;5058604;28;20177;-66
2021/07/28 05:33:38;;;;;;;12.80;11.00;;;;;;;23.37;53.48;100541.06;5059600;28;20174;-65
2021/07/28 05:36:04;;;;;;;14.40;12.90;;;;;;;22.85;55.51;100532.78;5059560;28;20438;-65
2021/07/28 05:38:29;;;;;;;16.27;14.60;;;;;;;22.76;55.88;100536.75;5059551;28;20170;-65
2021/07/28 05:40:55;;;;;;;14.73;13.33;;;;;;;22.43;55.96;100539.06;5059677;28;20543;-65
2021/07/28 05:43:23;;;;;;;13.83;12.43;;;;;;;22.61;55.87;100542.72;5059321;28;20307;-66
2021/07/28 05:45:50;;;;;;;15.50;13.90;;;;;;;22.61;56.01;100545.38;5059403;28;20416;-66
2021/07/28 05:48:15;;;;;;;14.10;12.77;;;;;;;22.03;57.26;100538.94;5059746;28;20448;-65
2021/07/28 05:50:41;;;;;;;13.30;11.90;;;;;;;22.66;56.38;100527.44;5059360;28;20452;-66
2021/07/28 05:53:06;;;;;;;14.60;13.20;;;;;;;22.85;55.89;100530.13;5059173;28;20428;-65
2021/07/28 05:55:31;;;;;;;13.60;12.30;;;;;;;24.18;51.79;100532.75;5059425;28;20205;-66
2021/07/28 05:57:58;;;;;;;13.47;12.17;;;;;;;24.57;50.26;100529.91;5059237;28;20173;-66
2021/07/28 06:00:24;;;;;;;13.33;12.03;;;;;;;24.00;51.84;100531.00;5059195;28;20204;-66
2021/07/28 06:02:49;;;;;;;13.10;11.90;;;;;;;24.41;50.81;100528.06;5059712;28;20745;-66
2021/07/28 06:05:14;;;;;;;13.20;12.00;;;;;;;24.01;52.32;100535.41;5058867;28;20453;-66
2021/07/28 06:07:40;;;;;;;13.80;12.37;;;;;;;24.62;50.27;100525.22;5059174;28;20247;-67
2021/07/28 06:10:06;;;;;;;15.10;12.60;;;;;;;24.70;50.43;100531.03;5059190;28;20208;-66
2021/07/28 06:12:32;;;;;;;11.50;10.40;;;;;;;25.60;48.67;100528.81;5058620;28;20176;-66
2021/07/28 06:14:57;;;;;;;12.50;10.33;;;;;;;27.17;44.37;100523.94;5058730;28;20677;-67
2021/07/28 06:17:22;;;;;;;11.70;10.60;;;;;;;27.68;42.95;100528.75;5059160;28;20165;-66
2021/07/28 06:19:48;;;;;;;11.87;10.53;;;;;;;27.05;43.78;100520.25;5058885;28;20386;-68
2021/07/28 06:22:13;;;;;;;10.67;9.67;;;;;;;27.24;43.72;100536.00;5058787;28;20498;-65
2021/07/28 06:24:38;;;;;;;10.67;9.27;;;;;;;27.89;42.15;100534.53;5058912;28;20169;-65
2021/07/28 06:27:04;;;;;;;10.03;9.03;;;;;;;27.50;42.67;100530.81;5058623;28;20176;-65
2021/07/28 06:29:31;;;;;;;9.60;8.70;;;;;;;25.39;47.50;100542.44;5058465;28;20225;-66
2021/07/28 06:31:56;;;;;;;9.97;9.07;;;;;;;24.08;50.69;100546.59;5058749;28;20412;-68
2021/07/28 06:34:21;;;;;;;9.90;8.90;;;;;;;24.62;49.70;100549.22;5058363;28;20539;-67
2021/07/28 06:36:46;;;;;;;9.40;8.50;;;;;;;24.69;49.67;100539.94;5058419;28;20188;-65
2021/07/28 06:39:12;;;;;;;10.57;9.57;;;;;;;25.04;48.74;100543.38;5058585;28;20199;-65
2021/07/28 06:41:37;;;;;;;9.03;8.23;;;;;;;24.46;49.72;100544.63;5058282;28;20555;-66
2021/07/28 06:44:03;;;;;;;9.40;8.50;;;;;;;24.01;51.38;100548.72;5057644;28;20478;-65
2021/07/28 06:46:28;;;;;;;12.33;10.03;;;;;;;24.94;48.66;100546.63;5057979;28;20192;-66
2021/07/28 06:48:54;;;;;;;9.40;8.47;;;;;;;24.97;48.91;100549.16;5058161;28;20213;-65
2021/07/28 06:51:19;;;;;;;10.63;8.80;;;;;;;24.32;50.19;100549.84;5058147;28;20170;-67
2021/07/28 06:53:45;;;;;;;13.57;9.87;;;;;;;24.15;50.02;100554.22;5058276;28;20169;-66
2021/07/28 06:56:11;;;;;;;10.67;9.67;;;;;;;23.87;50.85;100552.88;5049194;28;20174;-65
2021/07/28 06:58:37;;;;;;;10.00;9.10;;;;;;;24.27;50.60;100549.19;5043729;28;20173;-66
2021/07/28 07:01:05;;;;;;;11.03;10.00;;;;;;;24.86;48.69;100549.72;5058499;28;20412;-66
2021/07/28 07:03:30;;;;;;;14.43;9.30;;;;;;;23.87;51.28;100552.88;5046878;28;20208;-66
2021/07/28 07:05:55;;;;;;;10.40;9.47;;;;;;;24.28;50.40;100549.13;5037239;28;20854;-67
2021/07/28 07:08:21;;;;;;;10.40;9.40;;;;;;;23.97;50.84;100549.81;5038470;28;20186;-67
2021/07/28 07:10:46;;;;;;;10.40;9.53;;;;;;;24.34;49.71;100558.59;5038267;28;20178;-67
2021/07/28 07:13:11;;;;;;;8.70;7.97;;;;;;;24.39;49.03;100551.22;5057870;28;20208;-65
2021/07/28 07:15:37;;;;;;;10.20;9.30;;;;;;;23.54;51.37;100558.03;5058190;28;20170;-65
2021/07/28 07:18:02;;;;;;;10.60;9.60;;;;;;;24.24;50.40;100562.69;5057756;28;20455;-66
2021/07/28 07:20:27;;;;;;;9.80;9.00;;;;;;;23.98;50.88;100565.69;5057794;28;20251;-65
2021/07/28 07:22:52;;;;;;;11.30;10.10;;;;;;;23.94;50.78;100549.97;5057845;28;20245;-66
2021/07/28 07:25:20;;;;;;;10.47;9.60;;;;;;;26.07;46.34;100541.28;5057864;28;20181;-64
2021/07/28 07:27:45;;;;;;;10.03;8.53;;;;;;;26.32;44.99;100542.53;5057863;28;20189;-66
2021/07/28 07:30:10;;;;;;;9.27;8.47;;;;;;;27.44;42.61;100539.25;5038016;28;20424;-65
2021/07/28 07:32:36;;;;;;;8.70;7.97;;;;;;;26.01;45.20;100542.47;5037726;28;20184;-66
2021/07/28 07:35:01;;;;;;;9.97;9.00;;;;;;;26.26;43.98;100534.84;5038386;28;20170;-65
2021/07/28 07:37:27;;;;;;;9.23;8.33;;;;;;;27.72;41.13;100536.50;5037787;28;20252;-65
2021/07/28 07:39:52;;;;;;;10.40;9.50;;;;;;;27.47;42.40;100537.22;5043470;28;20169;-64
2021/07/28 07:42:18;;;;;;;9.90;9.00;;;;;;;26.56;43.96;100543.72;5057996;28;20248;-65
2021/07/28 07:44:45;;;;;;;8.50;7.80;;;;;;;25.52;46.97;100542.63;5057435;28;20436;-65
2021/07/28 07:47:10;;;;;;;10.30;9.33;;;;;;;25.42;48.08;100547.59;5057495;28;20165;-65
2021/07/28 07:49:36;;;;;;;9.07;8.37;;;;;;;24.27;49.42;100551.88;5058118;28;20555;-65
2021/07/28 07:52:01;;;;;;;9.60;8.80;;;;;;;24.57;48.92;100548.56;5057650;28;20539;-65
2021/07/28 07:54:26;;;;;;;9.67;8.63;;;;;;;25.42;46.97;100547.59;5056357;28;20184;-66
2021/07/28 07:56:52;;;;;;;10.87;9.47;;;;;;;27.32;42.35;100539.06;5060631;28;20216;-66
2021/07/28 07:59:17;;;;;;;10.10;9.20;;;;;;;27.43;41.26;100534.84;5061367;28;20213;-67
2021/07/28 08:01:42;;;;;;;9.80;8.93;;;;;;;27.23;41.44;100540.47;5061265;28;20268;-66
2021/07/28 08:04:08;;;;;;;9.10;8.30;;;;;;;27.17;42.09;100540.88;5059582;28;20177;-65
2021/07/28 08:06:33;;;;;;;10.77;9.63;;;;;;;26.43;43.96;100537.38;5060990;28;20194;-66
2021/07/28 08:08:58;;;;;;;10.43;9.50;;;;;;;25.49;46.33;100541.00;5061077;28;20299;-66
2021/07/28 08:11:23;;;;;;;9.63;8.73;;;;;;;24.92;48.11;100548.53;5061169;28;20173;-64
2021/07/28 08:13:49;;;;;;;10.20;9.30;;;;;;;25.25;47.10;100547.63;5060829;28;20185;-66
2021/07/28 08:16:16;;;;;;;10.20;9.30;;;;;;;24.62;48.55;100559.88;5061126;28;20432;-65
2021/07/28 08:18:42;;;;;;;10.00;9.00;;;;;;;24.73;48.50;100541.50;5061029;28;20173;-66
2021/07/28 08:21:09;;;;;;;11.17;10.17;;;;;;;25.01;47.90;100545.38;5061123;28;20420;-65
2021/07/28 08:23:35;;;;;;;10.53;9.63;;;;;;;24.34;48.91;100548.81;5060713;28;20470;-67
2021/07/28 08:26:00;;;;;;;10.00;9.03;;;;;;;24.64;48.82;100544.66;5061172;28;20805;-67
2021/07/28 08:28:26;;;;;;;10.53;9.63;;;;;;;24.62;48.40;100538.56;5060401;28;20552;-66
2021/07/28 08:30:55;;;;;;;9.30;8.60;;;;;;;24.43;49.43;100555.47;5060848;28;20169;-67
2021/07/28 08:33:20;;;;;;;9.20;8.30;;;;;;;24.13;50.40;100545.44;5060921;28;20461;-69
2021/07/28 08:35:45;;;;;;;10.03;9.13;;;;;;;23.66;51.30;100559.25;5059899;28;20427;-68
2021/07/28 08:38:11;;;;;;;10.00;9.00;;;;;;;24.57;49.57;100554.75;5060603;28;20176;-67
2021/07/28 08:40:36;;;;;;;10.20;9.30;;;;;;;25.10;48.28;100557.34;5060656;28;20459;-67
2021/07/28 08:43:03;;;;;;;11.53;10.33;;;;;;;24.65;48.14;100557.03;5060316;28;20204;-66
2021/07/28 08:45:29;;;;;;;10.30;9.40;;;;;;;24.71;47.91;100559.41;5060253;28;20177;-65
2021/07/28 08:47:54;;;;;;;9.97;9.17;;;;;;;24.03;50.18;100557.47;5060706;28;20451;-66
2021/07/28 08:50:20;;;;;;;10.70;9.80;;;;;;;23.78;50.81;100555.97;5060453;28;20500;-65
2021/07/28 08:52:45;;;;;;;9.63;8.93;;;;;;;23.58;51.79;100558.75;5060270;28;20523;-66
2021/07/28 08:55:11;;;;;;;10.20;9.30;;;;;;;25.51;46.26;100551.56;5060693;28;20201;-66
2021/07/28 08:57:36;;;;;;;9.33;7.90;;;;;;;24.89;46.65;100562.88;5060645;28;20247;-66
2021/07/28 09:00:04;;;;;;;8.97;8.03;;;;;;;23.21;50.33;100569.31;5060320;28;20528;-65
2021/07/28 09:02:29;;;;;;;8.83;8.13;;;;;;;23.53;49.97;100562.50;5060055;28;20265;-65
2021/07/28 09:04:55;;;;;;;8.50;7.70;;;;;;;23.47;50.29;100556.59;5059839;28;20495;-65
2021/07/28 09:07:22;;;;;;;8.67;7.80;;;;;;;24.69;48.16;100551.50;5059543;28;20619;-68
2021/07/28 09:10:13;;;;;;;8.77;7.93;;;;;;;26.79;43.87;100541.47;5060147;28;20183;-68
2021/07/28 09:12:41;;;;;;;9.20;8.40;;;;;;;28.00;40.48;100542.72;5058844;28;20474;-66
2021/07/28 09:15:08;;;;;;;8.20;7.50;;;;;;;28.53;39.30;100529.28;5059900;28;20825;-66
2021/07/28 09:17:43;;;;;;;7.60;6.90;;;;;;;29.73;37.05;100532.47;5060010;28;20426;-66
2021/07/28 09:20:09;;;;;;;7.40;6.80;;;;;;;28.60;38.99;100539.59;5059131;28;20411;-65
2021/07/28 09:22:39;;;;;;;7.60;7.00;;;;;;;29.58;36.79;100531.78;5058857;28;20468;-67
2021/07/28 09:25:05;;;;;;;7.77;7.17;;;;;;;29.25;38.12;100541.31;5059745;28;20248;-65
2021/07/28 09:27:42;;;;;;;7.97;7.37;;;;;;;28.32;38.55;100544.19;5059706;28;20420;-66
2021/07/28 09:30:08;;;;;;;8.00;7.30;;;;;;;28.67;38.30;100540.91;5059653;28;20523;-66
2021/07/28 09:32:35;;;;;;;7.50;6.90;;;;;;;28.63;38.21;100540.25;5059410;28;20508;-66
2021/07/28 09:35:01;;;;;;;8.17;6.87;;;;;;;28.09;39.78;100538.59;5059606;28;20415;-66
2021/07/28 09:37:26;;;;;;;7.00;6.50;;;;;;;27.27;40.92;100534.97;5059530;28;20689;-66
2021/07/28 09:39:52;;;;;;;8.17;6.90;;;;;;;27.42;40.73;100538.50;5059546;28;20208;-66
2021/07/28 09:42:26;;;;;;;7.73;7.03;;;;;;;27.04;41.73;100535.44;5059834;28;20216;-66
2021/07/28 09:44:56;;;;;;;7.80;7.20;;;;;;;28.47;38.58;100524.38;5059365;28;20168;-66
2021/07/28 09:47:26;;;;;;;7.57;6.97;;;;;;;28.30;38.99;100525.53;5059360;28;20478;-65
2021/07/28 09:49:57;;;;;;;7.93;7.13;;;;;;;27.59;40.69;100524.00;5059367;28;20423;-65
2021/07/28 09:52:29;;;;;;;7.03;6.53;;;;;;;28.12;39.46;100526.75;5059190;28;20423;-65
2021/07/28 09:54:56;;;;;;;7.87;7.20;;;;;;;27.10;42.01;100530.66;5059245;28;20817;-65
2021/07/28 09:57:23;;;;;;;7.63;6.93;;;;;;;25.98;44.27;100523.09;5059191;28;20423;-65
2021/07/28 10:00:06;;;;;;;7.77;7.27;;;;;;;25.81;46.15;100524.09;5059433;28;20458;-67
2021/07/28 10:02:34;;;;;;;8.50;7.70;;;;;;;25.20;46.50;100515.88;5058842;28;20455;-66
2021/07/28 10:05:01;;;;;;;7.70;7.00;;;;;;;25.33;46.39;100519.63;5058943;28;20659;-68
2021/07/28 10:07:29;;;;;;;8.97;8.00;;;;;;;24.57;48.01;100533.41;5058932;28;20763;-66
2021/07/28 10:10:11;;;;;;;8.43;7.70;;;;;;;24.76;47.54;100528.03;5058531;28;20570;-66
2021/07/28 10:12:38;;;;;;;7.87;7.13;;;;;;;24.72;47.43;100531.78;5058583;28;20424;-68
2021/07/28 10:15:08;;;;;;;7.80;7.20;;;;;;;24.60;47.21;100516.41;5058719;28;20782;-67
2021/07/28 10:17:35;;;;;;;8.57;7.67;;;;;;;26.11;44.22;100521.44;5059101;28;20416;-67
2021/07/28 10:20:00;;;;;;;8.10;7.40;;;;;;;27.92;40.60;100514.72;5057960;28;20412;-67
2021/07/28 10:22:27;;;;;;;8.67;7.87;;;;;;;27.97;39.41;100507.19;5058517;28;20478;-67
2021/07/28 10:24:52;;;;;;;8.33;6.93;;;;;;;28.19;39.49;100512.84;5058644;28;20181;-68
2021/07/28 10:27:18;;;;;;;7.30;6.70;;;;;;;29.47;37.24;100513.78;5057399;28;20721;-67
2021/07/28 10:29:44;;;;;;;7.50;6.90;;;;;;;28.71;39.25;100512.91;5058484;28;20304;-65
2021/07/28 10:32:27;;;;;;;8.33;6.53;;;;;;;27.94;40.64;100519.00;5058998;28;20300;-65
2021/07/28 10:34:52;;;;;;;8.37;7.40;;;;;;;26.32;43.37;100513.13;5058261;28;20181;-67
2021/07/28 10:37:28;;;;;;;7.30;6.80;;;;;;;26.75;42.12;100512.31;5058283;28;20419;-66
2021/07/28 10:39:53;;;;;;;8.13;7.37;;;;;;;26.39;43.58;100503.78;5058349;28;20165;-64
2021/07/28 10:42:39;;;;;;;7.77;7.03;;;;;;;25.36;44.83;100494.59;5040499;28;20750;-65
2021/07/28 10:45:11;;;;;;;7.17;6.63;;;;;;;25.93;43.17;100511.84;5054264;28;20181;-66
2021/07/28 10:47:41;;;;;;;7.73;7.13;;;;;;;25.55;42.46;100505.06;5058138;28;20416;-67
2021/07/28 10:50:07;;;;;;;7.43;6.50;;;;;;;25.61;42.61;100509.19;5058064;28;20420;-67
2021/07/28 10:52:42;;;;;;;7.57;6.77;;;;;;;25.77;41.89;100496.69;5058026;28;20428;-68
2021/07/28 10:55:11;;;;;;;7.50;6.90;;;;;;;26.21;42.07;100503.06;5058155;28;20428;-66
2021/07/28 10:57:44;;;;;;;7.97;7.10;;;;;;;26.14;42.59;100501.69;5057962;28;20432;-66
2021/07/28 11:00:11;;;;;;;8.20;7.40;;;;;;;25.92;42.43;100496.75;5058541;28;20778;-66
2021/07/28 11:02:51;;;;;;;8.17;7.40;;;;;;;26.13;42.92;100491.97;5058122;28;20446;-66
2021/07/28 11:05:22;;;;;;;8.77;7.17;;;;;;;26.95;41.12;100495.88;5057839;28;20763;-67
2021/07/28 11:08:15;;;;;;;7.53;6.83;;;;;;;26.59;41.32;100486.53;5057244;28;20464;-67
2021/07/28 11:10:55;;;;;;;6.87;6.37;;;;;;;27.43;39.53;100479.50;5057761;28;20846;-66
2021/07/28 11:13:23;;;;;;;7.40;6.70;;;;;;;28.23;37.40;100479.50;5057785;28;20428;-66
2021/07/28 11:16:02;;;;;;;6.23;5.73;;;;;;;27.96;37.46;100470.66;5057879;28;20435;-66
2021/07/28 11:18:32;;;;;;;7.20;6.60;;;;;;;26.86;39.99;100459.03;5057693;28;20485;-67